Terminal Aerodrome Forecast
Issued by NWS

Home | Current Version | Previous Version | Text Only | Print | Product List | Glossary Off
Versions: 1 2 3 4 5 6 7 8 9 10 11 12 13 14 15 16 17 18 19 20 21 22

000
FTUS43 KMPX 290536
TAFAXN
TAF
KAXN 290536Z 2906/3006 32014G22KT P6SM OVC012
      TEMPO 2906/2908 OVC008
     FM290800 33022G30KT P6SM OVC015
     FM291600 33018G26KT P6SM BKN022
     FM292000 32015G23KT P6SM SCT025
     FM300200 33008KT P6SM SKC=

USA.gov is the U.S. government's official web portal to all federal, state and local government web resources and services.